Date,TemperatureHighF,TemperatureAvgF,TemperatureLowF,DewpointHighF,DewpointAvgF,DewpointLowF,HumidityHigh,HumidityAvg,HumidityLow,PressureMaxIn,PressureMinIn,WindSpeedMaxMPH,WindSpeedAvgMPH,GustSpeedMaxMPH,PrecipitationSumIn
2013-1-1,45.4,41.6,37.5,45.1,41.5,37.5,100,99,94,29.93,29.30,20,6,20,0.18
2013-1-2,53.3,48.4,41.8,53.3,48.4,41.8,100,100,100,30.09,29.92,26,7,27,0.45
2013-1-3,52.8,52.0,51.1,52.8,52.0,51.1,100,100,100,30.42,30.10,28,8,28,0.04
2013-1-4,51.6,50.1,48.8,51.4,50.1,48.8,100,100,100,30.47,30.41,17,6,17,0.01
2013-1-5,51.7,50.1,47.7,51.7,50.1,47.7,100,100,100,30.43,30.25,21,7,21,0.16
2013-1-6,51.1,48.2,43.1,51.1,48.2,43.1,100,100,100,30.42,30.18,20,6,20,0.14
2013-1-7,52.6,51.1,49.8,52.6,51.1,49.8,100,100,100,30.18,29.98,17,6,17,0.30
2013-1-8,54.2,49.7,43.3,54.1,49.7,43.1,100,100,100,30.16,29.94,20,7,20,0.23
2013-1-9,47.4,43.8,40.5,47.4,43.8,40.3,100,100,100,30.16,30.04,13,2,13,0.02
2013-1-10,40.3,36.9,33.8,40.3,36.9,33.8,100,100,100,30.05,29.94,6,1,6,0.01
2013-1-11,44.8,40.3,37.8,44.8,40.0,-5.0,100,99,12,30.00,29.93,8,1,8,0.01
2013-1-12,40.1,37.2,34.3,40.1,37.2,34.3,100,100,100,30.10,29.92,7,1,7,0.01
2013-1-13,39.9,37.9,35.9,39.9,37.9,35.9,100,100,100,30.11,29.96,22,5,22,0.07
2013-1-14,42.8,38.8,35.3,42.8,38.7,35.3,100,100,97,29.96,29.75,17,5,17,0.12
2013-1-15,38.2,34.7,28.4,38.2,34.7,28.4,100,100,100,29.90,29.81,10,2,10,0.00
2013-1-16,35.2,32.3,27.5,35.2,32.3,27.3,100,100,100,29.95,29.83,5,0,5,0.00
2013-1-17,38.2,35.7,34.1,36.9,34.8,33.2,100,97,86,29.97,29.74,13,3,13,0.01
2013-1-18,36.5,34.6,31.6,36.3,32.2,29.7,100,91,82,29.74,29.50,28,11,28,0.00
2013-1-19,38.9,34.6,31.8,38.3,34.4,31.8,100,99,96,29.70,29.53,16,4,16,0.00
2013-1-20,35.9,34.9,33.8,35.2,34.1,33.1,100,97,92,29.69,29.51,13,5,13,0.00
2013-1-21,37.0,36.0,34.9,37.0,36.0,34.4,100,100,96,29.51,29.43,26,10,26,0.03
2013-1-22,38.2,34.6,29.0,37.9,34.5,28.8,100,100,96,29.82,29.46,17,4,17,0.05
2013-1-23,36.8,34.5,30.1,36.6,34.5,30.1,100,100,100,29.93,29.82,6,1,6,0.65
2013-1-24,39.6,37.2,34.6,38.0,36.4,34.6,100,97,89,30.04,29.92,20,7,20,0.66
2013-1-25,38.5,37.0,35.0,38.5,37.0,35.0,100,100,95,29.92,29.37,29,10,29,0.21
2013-1-26,50.2,42.1,37.9,50.1,42.0,37.9,100,100,97,29.56,28.90,28,8,28,1.05
2013-1-27,51.9,44.0,40.8,51.9,44.0,40.8,100,100,99,29.21,28.76,30,11,30,0.44
2013-1-28,48.6,44.5,40.9,48.6,44.5,40.8,100,100,99,29.32,28.86,33,14,33,0.85
2013-1-29,55.3,48.4,46.0,55.1,47.9,44.4,100,98,89,29.33,28.93,32,12,32,0.41
2013-1-30,47.3,44.9,41.3,46.7,44.2,41.3,100,98,85,29.65,29.13,33,10,33,0.37
2013-1-31,48.2,44.5,40.3,46.2,44.0,40.3,100,98,86,29.65,29.16,34,12,35,0.87
2013-2-1,45.7,41.9,36.0,45.7,41.1,34.3,100,97,89,29.83,29.35,21,5,21,0.18
2013-2-2,42.5,37.7,33.1,40.1,36.4,32.3,100,95,82,30.19,29.83,16,4,16,0.00
2013-2-3,51.3,47.3,39.6,51.3,47.3,39.6,100,100,95,30.02,29.51,28,11,28,0.58
2013-2-4,51.1,41.0,35.8,50.5,40.8,35.6,100,99,93,29.59,29.34,39,14,39,0.38
2013-2-5,44.8,40.1,35.0,44.8,39.6,35.0,100,98,86,29.61,29.09,28,9,28,0.36
2013-2-6,44.1,39.9,34.6,39.2,35.5,33.7,99,84,70,30.15,29.61,26,7,26,0.00
2013-2-7,42.1,39.1,35.5,41.2,38.6,35.2,100,98,93,30.15,30.00,12,3,12,0.01
2013-2-8,46.0,41.9,37.2,43.2,41.0,37.2,100,97,88,30.18,30.07,17,4,17,0.07
2013-2-9,42.9,42.0,40.2,42.9,42.0,40.2,100,100,100,30.10,29.77,10,2,10,0.11
2013-2-10,40.3,37.9,36.2,40.3,37.9,36.2,100,100,100,29.77,29.37,13,5,13,0.31
2013-2-11,44.8,38.9,35.2,40.8,37.6,34.4,100,95,82,29.92,29.44,20,7,20,0.09
2013-2-12,40.8,36.7,34.0,38.4,35.7,34.0,100,97,88,30.06,29.92,10,3,10,0.00
2013-2-13,48.5,39.1,34.7,48.5,38.7,33.1,100,98,88,30.04,29.50,29,12,29,0.80
2013-2-14,47.7,46.2,44.9,47.7,46.2,44.9,100,100,100,29.84,29.53,20,6,20,0.11
2013-2-15,51.3,45.0,39.3,48.3,44.5,39.3,100,98,85,30.10,29.84,13,3,13,0.01
2013-2-16,51.9,46.2,41.1,51.9,46.2,41.1,100,100,100,30.09,30.06,20,6,20,0.00
2013-2-17,51.4,44.2,34.9,47.6,43.3,34.9,100,97,85,30.09,30.03,13,3,13,0.00
2013-2-18,47.3,37.4,30.9,42.5,36.3,30.9,100,96,83,30.12,30.07,7,1,7,0.01
2013-2-19,46.8,37.6,29.8,42.7,36.6,29.8,100,97,81,30.13,30.08,13,3,13,0.00
2013-2-20,43.6,39.2,32.2,43.6,38.8,32.0,100,98,94,30.29,30.12,12,4,12,0.00
2013-2-21,42.6,34.3,27.9,36.2,31.8,27.9,100,91,77,30.31,30.27,20,4,20,0.01
2013-2-22,38.2,35.9,34.1,33.2,31.3,29.1,90,83,79,30.32,30.27,13,3,13,0.00
2013-2-23,41.5,36.2,33.7,36.5,33.4,30.9,100,90,77,30.40,30.27,7,1,7,0.00
2013-2-24,42.6,38.0,32.9,40.0,37.1,32.9,100,97,88,30.48,30.39,10,1,10,0.00
2013-2-25,46.7,38.2,33.1,43.0,37.3,33.1,100,97,84,30.63,30.48,12,2,12,0.00
2013-2-26,49.4,40.2,34.1,43.9,39.0,34.1,100,96,80,30.69,30.61,12,4,12,0.01
2013-2-27,50.5,38.7,30.6,46.7,38.1,30.6,100,98,85,30.69,30.59,7,2,7,0.01
2013-2-28,51.7,41.2,32.1,48.6,40.4,32.1,100,97,86,30.59,30.51,7,1,7,0.01
2013-3-1,51.3,42.8,34.7,44.9,40.9,34.7,100,93,77,30.54,30.44,7,1,7,0.00
2013-3-2,54.2,46.0,37.3,50.1,44.9,37.3,100,96,83,30.44,30.25,12,3,12,0.00
2013-3-3,48.5,45.6,41.3,46.4,44.6,40.5,100,97,86,30.25,30.09,12,2,12,0.00
2013-3-4,49.6,42.2,34.9,44.2,40.5,34.9,100,94,80,30.09,29.74,9,2,9,0.00
2013-3-5,49.4,40.1,32.8,43.0,38.0,32.8,100,93,76,29.74,29.63,7,2,7,0.00
2013-3-6,43.1,41.1,35.9,42.9,40.8,35.9,100,99,96,29.69,29.62,20,10,20,0.04
2013-3-7,45.8,43.3,41.5,45.8,43.3,41.5,100,100,100,29.62,29.51,20,10,20,0.26
2013-3-8,43.6,41.9,40.8,43.6,41.9,40.8,100,100,99,29.68,29.51,24,13,24,0.00
2013-3-9,41.8,39.9,37.8,41.6,39.2,33.8,100,97,85,29.88,29.68,21,13,21,0.06
2013-3-10,39.3,35.1,28.7,38.0,33.0,26.9,100,92,79,30.11,29.88,20,9,20,0.02
2013-3-11,37.2,31.1,26.3,29.3,26.0,23.1,97,82,66,30.16,30.11,20,6,20,0.04
2013-3-12,46.0,36.6,26.4,38.1,31.1,22.1,92,80,67,30.15,29.91,14,3,14,0.00
2013-3-13,46.1,38.2,31.8,36.3,31.8,27.2,98,79,56,29.99,29.88,12,4,12,0.00
2013-3-14,45.4,39.2,31.3,45.2,38.5,28.6,100,97,89,29.99,29.57,17,5,17,0.08
2013-3-15,49.6,42.4,35.5,47.6,41.7,35.5,100,98,84,29.57,29.36,24,7,24,0.34
2013-3-16,40.6,37.6,35.2,40.6,37.6,35.2,100,100,100,29.36,29.21,12,2,12,0.25
2013-3-17,43.2,38.4,34.6,43.2,38.4,34.6,100,100,100,29.25,29.11,13,2,13,0.11
2013-3-18,41.1,38.2,34.6,41.1,38.2,34.3,100,100,97,29.52,29.24,20,10,20,0.13
2013-3-19,37.6,36.2,34.9,37.6,36.0,34.3,100,99,96,29.63,29.51,25,12,25,0.05
2013-3-20,41.8,37.1,31.9,39.8,35.8,31.5,100,95,83,30.03,29.63,16,6,16,0.01
2013-3-21,42.9,34.5,25.7,35.3,31.5,25.7,100,89,72,30.07,29.94,24,9,24,0.01
2013-3-22,37.8,35.9,34.0,35.9,34.6,33.1,100,95,84,29.97,29.88,30,17,30,0.06
2013-3-23,35.6,34.3,33.7,34.4,32.5,29.5,100,93,83,30.15,29.96,26,15,27,0.05
2013-3-24,38.3,35.3,33.5,31.6,30.1,28.5,86,81,71,30.27,30.14,30,16,30,0.08
2013-3-25,38.5,35.7,33.4,32.9,30.9,28.5,89,83,74,30.28,30.24,22,12,22,0.03
2013-3-26,41.8,35.1,28.1,34.2,30.8,25.3,100,85,66,30.24,30.15,20,7,20,0.03
2013-3-27,42.5,34.7,26.9,37.6,32.2,24.7,100,91,70,30.16,30.09,18,6,18,0.01
2013-3-28,43.5,36.0,30.0,36.0,31.9,27.5,100,86,66,30.10,30.04,20,6,20,0.02
2013-3-29,44.9,35.3,27.5,37.8,31.6,25.8,100,87,68,30.04,29.92,16,4,16,0.00
2013-3-30,45.5,35.9,27.2,35.2,31.0,25.3,100,83,62,30.00,29.96,12,3,12,0.00
2013-3-31,44.1,36.9,29.4,32.6,29.7,27.2,95,76,58,30.01,29.96,18,4,18,0.00
2013-4-1,46.8,36.1,26.4,34.3,29.3,24.1,94,77,59,30.08,29.98,20,6,20,0.00
2013-4-2,47.9,36.6,25.8,36.1,30.9,23.8,97,81,61,30.24,30.08,14,4,14,0.00
2013-4-3,49.5,37.4,26.4,38.0,31.6,25.9,100,81,57,30.31,30.24,13,3,13,0.00
2013-4-4,50.4,40.6,32.2,38.0,33.9,29.6,93,78,55,30.29,30.22,22,4,22,0.00
2013-4-5,49.6,41.4,34.4,38.0,34.0,29.8,94,76,56,30.27,30.22,13,4,13,0.00
2013-4-6,51.0,40.7,32.7,42.0,35.5,28.3,98,82,62,30.28,30.19,14,4,14,0.00
2013-4-7,51.3,40.7,32.1,42.3,37.0,30.3,96,87,69,30.19,29.96,17,4,17,0.00
2013-4-8,47.9,40.4,35.8,37.5,33.5,28.3,96,77,57,29.96,29.71,20,9,20,0.00
2013-4-9,49.4,40.0,32.4,37.0,32.2,28.4,93,75,52,29.71,29.64,21,9,21,0.00
2013-4-10,48.0,40.1,31.5,41.7,37.0,30.7,100,89,70,29.70,29.57,13,4,13,0.00
2013-4-11,45.1,40.4,37.6,44.8,39.9,37.5,100,98,95,29.57,29.40,13,4,13,0.19
2013-4-12,44.8,40.5,36.9,44.8,40.5,36.9,100,100,96,29.65,29.37,12,4,12,0.37
2013-4-13,55.4,47.4,40.9,52.8,44.6,40.9,100,91,69,29.72,29.36,32,7,32,0.07
2013-4-14,56.9,53.0,48.8,53.8,51.6,48.8,100,95,84,29.44,29.35,39,20,39,0.65
2013-4-15,56.9,52.1,47.1,54.0,49.6,47.1,100,92,80,29.73,29.44,34,12,35,0.11
2013-4-16,54.4,49.2,43.2,49.9,45.3,39.7,100,87,65,29.84,29.32,34,16,35,0.20
2013-4-17,52.9,47.3,41.5,52.8,46.7,40.5,100,98,90,29.83,29.08,34,12,35,1.10
2013-4-18,53.2,48.2,43.8,49.4,45.8,41.3,100,92,78,29.92,29.06,33,14,33,0.26
2013-4-19,55.0,46.4,37.9,44.2,40.2,36.2,95,80,58,30.42,29.92,20,5,20,0.00
2013-4-20,57.0,48.5,40.6,47.1,43.6,38.8,99,84,65,30.42,30.12,24,9,24,0.06
2013-4-21,54.4,46.8,42.9,48.1,45.2,41.8,100,94,75,30.11,29.84,25,9,25,0.24
2013-4-22,54.2,47.8,43.5,52.0,46.1,43.0,100,94,80,29.86,29.60,31,13,31,0.05
2013-4-23,55.4,49.8,46.1,48.0,45.6,43.4,99,86,71,30.05,29.72,30,13,30,0.07
2013-4-24,54.4,49.1,43.8,51.9,44.3,37.1,100,85,59,30.22,29.87,25,6,25,0.46
2013-4-25,51.9,44.6,41.1,46.3,41.8,38.0,100,90,74,30.21,30.04,20,4,20,0.16
2013-4-26,53.2,43.3,37.8,45.8,39.8,36.4,99,88,66,30.05,29.86,28,7,28,0.14
2013-4-27,53.8,44.8,36.8,39.1,36.1,33.3,92,73,54,30.14,29.95,18,5,18,0.00
2013-4-28,50.4,44.5,40.1,48.3,42.7,38.4,100,94,79,29.95,29.61,28,11,28,0.40
2013-4-29,52.8,46.0,40.6,44.1,41.2,38.5,98,84,65,30.11,29.61,32,12,32,0.09
2013-4-30,56.5,46.7,35.8,42.2,37.8,30.7,94,73,47,30.29,30.11,14,4,14,0.00
2013-5-1,55.6,47.8,39.1,47.7,40.8,35.3,99,78,51,30.26,30.10,24,8,24,0.00
2013-5-2,56.5,45.3,34.0,48.6,40.9,32.5,100,85,64,30.27,29.98,22,7,22,0.08
2013-5-3,52.3,48.9,41.8,52.3,48.7,40.7,100,99,95,29.98,29.66,29,11,29,0.71
2013-5-4,49.5,45.1,37.3,46.0,42.1,36.5,98,89,77,29.88,29.74,20,7,20,0.00
2013-5-5,59.2,53.6,47.9,57.5,51.9,45.7,100,94,88,30.01,29.88,20,8,20,0.02
2013-5-6,55.9,52.1,48.0,54.8,51.3,47.1,100,97,91,30.04,29.97,20,6,20,0.04
2013-5-7,72.7,56.8,41.1,57.4,49.3,40.8,100,79,48,30.05,29.81,16,3,16,0.01
2013-5-8,58.0,52.5,47.9,55.2,48.6,42.9,96,87,70,29.81,29.44,25,9,25,0.04
2013-5-9,52.3,47.6,43.3,46.2,44.2,40.9,99,88,76,29.50,29.31,26,10,27,0.04
2013-5-10,53.9,47.5,41.3,51.7,45.6,39.7,99,93,77,29.62,29.39,26,5,26,0.16
2013-5-11,49.4,45.9,42.6,48.7,44.8,41.8,100,96,90,29.75,29.48,24,9,24,0.34
2013-5-12,51.9,46.9,41.6,51.7,45.6,39.0,100,95,86,29.79,29.59,20,8,20,0.12
2013-5-13,48.9,42.7,37.9,45.3,40.4,36.3,98,91,80,29.63,29.43,26,10,26,0.47
2013-5-14,52.6,45.1,40.3,47.2,42.4,37.6,100,90,74,29.43,29.36,24,8,24,0.47
2013-5-15,57.2,47.2,38.3,44.3,40.4,36.5,96,78,55,29.42,29.31,24,7,24,0.00
2013-5-16,55.9,47.6,39.1,45.5,41.0,37.2,97,79,61,29.67,29.40,16,4,16,0.01
2013-5-17,62.6,51.7,40.1,47.0,41.5,38.8,100,71,47,29.86,29.68,24,4,24,0.00
2013-5-18,56.2,51.7,47.7,56.2,50.5,42.4,100,96,73,29.85,29.69,21,6,21,0.91
2013-5-19,59.0,52.7,49.8,56.7,52.3,49.8,100,98,92,29.98,29.79,16,4,16,0.00
2013-5-20,72.0,60.3,52.2,64.1,56.8,52.2,100,89,68,30.01,29.92,13,4,13,0.00
2013-5-21,63.1,55.0,47.6,52.2,47.9,44.2,94,78,56,30.10,30.01,20,8,20,0.00
2013-5-22,56.7,48.9,39.3,45.1,41.0,36.5,93,76,50,30.11,30.03,27,11,27,0.04
2013-5-23,51.1,44.3,39.2,42.9,37.1,34.3,90,76,61,30.04,29.93,21,10,21,0.03
2013-5-24,60.7,50.6,42.8,43.3,38.7,34.0,80,64,47,30.20,29.94,20,8,20,0.00
2013-5-25,62.6,51.4,37.6,45.9,41.4,34.8,91,70,47,30.20,30.12,16,4,16,0.00
2013-5-26,62.3,52.7,44.3,52.0,46.1,39.3,92,79,61,30.12,29.72,18,6,18,0.00
2013-5-27,56.0,50.2,46.2,52.8,48.2,44.0,100,93,79,29.72,29.40,22,10,22,1.06
2013-5-28,59.8,50.1,40.6,51.9,46.5,39.0,100,88,67,29.77,29.49,14,4,14,0.01
2013-5-29,68.9,55.3,41.8,55.2,49.6,40.5,99,82,59,29.92,29.76,13,3,13,0.04
2013-5-30,70.6,61.3,53.1,56.3,51.0,46.4,85,69,57,30.07,29.91,16,4,16,0.01
2013-5-31,60.9,52.9,45.8,54.1,47.3,41.1,96,82,63,30.20,30.06,20,6,20,0.00
2013-6-1,58.3,50.1,42.6,53.3,44.0,39.6,97,80,59,30.32,30.19,20,6,20,0.05
2013-6-2,62.9,52.2,39.8,49.4,44.5,37.5,96,76,56,30.44,30.32,14,4,14,0.00
2013-6-3,67.3,57.8,50.1,59.2,54.0,47.6,99,88,73,30.49,30.44,12,2,12,0.00
2013-6-4,73.9,61.2,50.1,56.7,52.6,48.0,100,76,52,30.48,30.30,17,4,17,0.00
2013-6-5,70.8,58.3,50.8,59.9,53.4,47.6,96,85,60,30.30,30.14,10,2,10,0.31
2013-6-6,72.7,58.8,45.1,56.9,50.8,43.5,98,77,47,30.25,30.17,12,2,12,0.00
2013-6-7,70.9,58.9,44.6,56.9,50.4,42.4,96,75,51,30.30,30.25,13,4,13,0.00
2013-6-8,74.6,59.9,46.4,56.2,49.2,44.2,95,70,41,30.30,30.09,9,3,9,0.00
2013-6-9,70.6,57.5,48.5,56.2,51.0,46.5,96,80,55,30.12,29.96,12,4,12,0.00
2013-6-10,63.9,55.6,49.6,54.7,50.9,46.8,93,85,68,30.00,29.88,12,4,12,0.00
2013-6-11,59.2,54.2,49.2,56.5,51.9,46.4,99,92,71,29.89,29.63,17,5,17,0.19
2013-6-12,61.5,55.8,51.3,56.7,53.3,49.3,100,92,71,29.64,29.58,17,6,17,0.20
2013-6-13,59.5,53.3,46.4,49.6,47.0,44.1,96,80,59,29.79,29.56,22,7,22,0.00
2013-6-14,65.2,55.2,46.7,55.4,49.0,45.6,97,81,62,29.80,29.53,29,8,29,0.11
2013-6-15,53.2,49.7,46.2,53.2,49.2,45.7,100,98,92,29.59,29.35,30,10,30,0.89
2013-6-16,66.8,56.1,47.9,55.7,51.2,47.9,100,85,58,29.98,29.59,12,3,12,0.00
2013-6-17,67.6,58.3,48.5,56.6,52.7,46.9,97,82,59,30.05,29.98,9,2,9,0.00
2013-6-18,68.8,61.2,54.5,57.3,54.0,50.9,95,78,58,30.01,29.92,13,3,13,0.00
2013-6-19,65.3,57.0,50.4,51.5,49.5,45.8,96,77,54,30.02,29.95,20,4,20,0.00
2013-6-20,72.5,59.2,49.1,58.3,52.2,45.5,93,78,53,30.01,29.78,10,2,10,0.00
2013-6-21,66.8,59.4,55.1,56.9,52.8,48.6,95,80,58,29.78,29.57,13,4,13,0.00
2013-6-22,62.6,54.9,51.1,55.4,52.2,49.9,100,91,72,29.57,29.28,20,7,20,0.33
2013-6-23,59.2,54.3,50.7,54.9,50.6,45.4,100,88,77,29.96,29.38,26,11,27,0.25
2013-6-24,59.5,53.4,47.6,47.5,45.3,42.7,88,74,60,30.26,29.96,20,8,20,0.00
2013-6-25,63.9,54.9,44.6,53.2,49.0,41.8,92,81,65,30.39,30.26,13,3,13,0.00
2013-6-26,64.5,56.4,48.6,52.4,48.4,45.0,95,76,57,30.44,30.39,14,6,14,0.00
2013-6-27,59.6,53.6,49.1,59.2,52.0,45.3,100,94,79,30.42,30.15,14,4,14,0.27
2013-6-28,59.0,55.4,50.7,58.2,53.7,46.1,100,94,78,30.16,29.94,20,6,20,0.13
2013-6-29,58.7,53.7,49.1,55.9,50.7,46.3,99,90,80,30.14,30.08,20,6,20,0.00
2013-6-30,59.6,55.6,51.1,58.6,53.4,48.0,100,92,84,30.10,29.86,24,9,24,0.15
2013-7-1,61.2,53.8,48.6,50.7,47.5,44.0,97,80,59,29.90,29.84,20,6,20,0.03
2013-7-2,56.5,53.4,49.2,56.0,51.9,45.8,100,95,85,29.87,29.42,24,8,24,0.29
2013-7-3,62.6,57.7,53.8,56.6,54.7,52.7,100,90,73,29.79,29.43,16,5,16,0.03
2013-7-4,62.6,58.7,53.8,60.9,54.7,48.9,100,87,68,30.13,29.69,26,11,26,0.36
2013-7-5,66.8,58.4,53.1,56.9,53.7,48.9,99,85,69,30.36,30.13,17,6,17,0.01
2013-7-6,70.4,60.0,49.1,59.2,55.1,48.0,98,84,66,30.42,30.29,18,6,18,0.00
2013-7-7,72.8,63.9,57.6,61.6,58.8,54.6,100,85,63,30.58,30.42,13,4,13,0.03
2013-7-8,81.8,65.8,53.2,67.0,59.4,50.9,100,82,57,30.61,30.47,8,3,8,0.00
2013-7-9,80.7,70.0,57.6,68.0,62.1,55.9,96,78,56,30.47,30.32,16,4,16,0.00
2013-7-10,76.7,66.0,58.4,64.1,60.0,56.7,95,82,62,30.38,30.30,12,4,12,0.00
2013-7-11,77.4,66.5,56.9,67.2,61.0,54.1,93,83,70,30.34,30.25,13,3,13,0.00
2013-7-12,80.9,69.7,59.6,67.4,62.3,58.4,99,79,50,30.26,30.21,13,4,13,0.00
2013-7-13,72.5,64.5,55.6,62.7,58.0,50.3,99,80,57,30.30,30.24,16,4,16,0.00
2013-7-14,67.8,59.9,53.1,56.5,52.5,49.7,92,77,61,30.29,30.20,16,4,16,0.00
2013-7-15,68.3,59.5,51.4,59.7,55.0,50.0,98,85,65,30.21,30.18,16,4,16,0.00
2013-7-16,71.8,64.5,59.8,62.4,59.6,56.0,99,85,69,30.24,30.18,12,4,12,0.00
2013-7-17,74.6,66.2,58.1,61.0,58.6,56.1,95,78,58,30.33,30.23,14,4,14,0.00
2013-7-18,78.5,67.7,58.3,67.2,61.7,56.0,97,82,65,30.36,30.32,12,4,12,0.00
2013-7-19,84.0,69.3,52.3,63.5,58.2,50.0,98,71,41,30.37,30.29,13,4,13,0.00
2013-7-20,82.6,67.9,57.0,65.9,59.9,55.3,97,77,56,30.33,30.22,12,4,12,0.00
2013-7-21,74.6,63.1,56.7,61.0,56.5,53.1,94,80,60,30.26,30.11,16,8,16,0.00
2013-7-22,72.3,64.0,59.2,62.8,58.9,55.4,92,84,71,30.12,29.96,13,6,13,0.00
2013-7-23,69.8,62.9,59.9,67.9,61.7,58.4,100,96,87,29.96,29.83,14,4,14,0.63
2013-7-24,75.8,65.1,55.6,66.1,60.4,55.0,100,86,66,29.87,29.83,12,3,12,0.03
2013-7-25,71.6,63.3,58.4,66.4,61.1,56.7,100,93,77,29.86,29.76,8,2,8,0.85
2013-7-26,72.7,64.6,58.6,62.6,59.8,55.9,98,85,67,29.83,29.78,18,4,18,0.00
2013-7-27,74.2,63.6,51.9,60.8,57.2,50.5,99,81,57,29.83,29.62,12,3,12,0.00
2013-7-28,66.6,60.9,57.8,62.3,59.2,55.1,100,94,82,29.62,29.52,12,3,12,0.76
2013-7-29,70.8,61.0,53.1,62.3,57.8,52.3,100,89,71,29.73,29.60,17,3,17,0.07
2013-7-30,66.8,58.2,51.7,58.6,54.8,51.2,100,89,67,29.79,29.73,17,5,17,0.06
2013-7-31,68.8,59.1,51.1,57.4,53.7,49.7,100,84,57,29.86,29.71,16,3,16,0.09
2013-8-1,66.8,62.7,57.5,66.2,62.0,56.8,100,98,92,29.71,29.59,21,5,21,0.96
2013-8-2,72.0,65.2,58.4,63.1,59.4,55.1,99,82,62,29.59,29.50,30,12,30,0.01
2013-8-3,65.5,58.7,55.4,56.5,54.2,52.0,96,85,66,29.83,29.53,24,10,24,0.04
2013-8-4,68.6,60.1,52.9,57.5,54.9,51.3,99,84,60,29.89,29.82,18,6,18,0.03
2013-8-5,69.1,58.7,52.2,57.8,53.3,48.1,99,83,62,29.86,29.75,17,4,17,0.00
2013-8-6,68.1,57.7,49.1,54.7,51.6,46.5,95,81,60,29.96,29.86,18,3,18,0.00
2013-8-7,68.6,59.5,52.2,58.9,54.7,50.2,97,85,62,30.05,29.93,10,2,10,0.01
2013-8-8,70.6,59.9,48.8,59.1,54.5,48.3,100,84,61,30.04,29.88,14,3,14,0.01
2013-8-9,64.7,59.0,54.7,58.3,54.4,49.5,100,85,67,30.12,29.85,20,6,20,0.06
2013-8-10,64.5,56.6,52.9,54.9,52.2,49.8,95,86,67,30.13,29.98,14,4,14,0.02
2013-8-11,62.3,55.3,52.6,55.1,52.6,50.7,100,91,69,29.98,29.86,20,6,20,0.24
2013-8-12,62.6,56.2,51.1,55.5,51.8,48.0,98,86,69,30.04,29.83,20,7,20,0.08
2013-8-13,64.8,55.4,44.9,53.4,49.4,43.3,99,81,63,30.14,30.03,13,3,13,0.00
2013-8-14,68.3,60.1,53.9,62.2,57.6,52.5,100,92,70,30.13,29.91,16,4,16,0.09
2013-8-15,67.1,62.3,60.4,64.8,61.9,60.4,100,99,89,29.91,29.72,20,8,20,0.20
2013-8-16,65.8,59.0,53.3,60.5,56.0,52.5,100,90,74,29.86,29.74,17,5,17,0.02
2013-8-17,68.8,59.3,54.4,63.8,56.7,51.8,100,91,76,29.82,29.38,29,11,29,0.46
2013-8-18,61.8,56.1,52.6,55.5,51.7,49.5,97,86,69,29.79,29.45,24,8,24,0.10
2013-8-19,64.0,56.9,52.5,56.9,52.7,50.4,98,87,66,30.17,29.79,21,6,21,0.02
2013-8-20,65.5,58.6,53.9,59.3,56.2,51.9,98,92,76,30.23,30.11,14,5,14,0.05
2013-8-21,70.3,61.8,58.1,63.6,60.2,57.5,100,95,77,30.10,30.01,20,7,20,0.18
2013-8-22,71.3,61.4,56.6,64.7,59.8,56.3,100,95,79,30.10,29.97,12,3,12,0.00
2013-8-23,69.3,59.7,52.5,63.9,57.9,52.5,100,94,78,29.97,29.85,12,2,12,0.05
2013-8-24,66.1,58.6,51.6,57.3,54.2,48.9,100,86,67,29.96,29.88,12,2,12,0.01
2013-8-25,73.2,59.4,46.0,61.1,53.6,45.2,100,82,64,30.15,29.96,7,1,7,0.00
2013-8-26,67.1,59.3,51.9,61.4,56.0,50.8,100,89,78,30.16,30.09,12,2,12,0.00
2013-8-27,65.5,58.3,50.8,62.8,56.2,49.0,100,93,83,30.19,30.07,14,3,14,0.00
2013-8-28,63.2,54.8,48.0,54.2,50.5,47.5,99,86,69,30.21,30.07,12,2,12,0.00
2013-8-29,61.5,57.6,52.8,60.4,56.9,49.9,100,98,90,30.07,29.99,16,5,16,0.06
2013-8-30,62.9,57.3,51.0,62.4,55.8,44.0,100,95,76,30.08,29.84,27,7,27,0.07
2013-8-31,60.9,54.3,49.4,51.6,47.9,42.6,95,80,54,30.30,30.08,25,7,25,0.06
2013-9-1,58.7,55.9,52.9,57.3,53.2,49.8,100,91,80,30.29,30.14,24,9,24,0.04
2013-9-2,65.2,60.4,57.3,62.7,60.1,57.3,100,99,89,30.24,30.12,24,10,24,0.07
2013-9-3,66.6,61.4,56.9,62.4,59.3,55.7,100,93,72,30.25,30.17,18,5,18,0.00
2013-9-4,68.8,59.8,54.5,57.9,54.8,50.4,100,84,63,30.17,29.88,22,6,22,0.00
2013-9-5,63.4,55.6,46.4,55.5,48.6,42.1,95,78,56,29.91,29.86,13,4,13,0.00
2013-9-6,57.8,49.6,41.8,51.1,46.1,39.9,99,88,74,29.93,29.87,12,3,12,0.51
2013-9-7,57.2,50.9,45.5,54.5,49.0,44.7,100,94,80,29.89,29.73,25,6,25,0.36
2013-9-8,61.3,52.1,45.1,53.5,48.8,44.6,100,89,71,29.94,29.88,17,4,17,0.01
2013-9-9,62.7,52.9,46.1,54.8,49.8,45.0,100,90,64,30.16,29.94,14,3,14,0.03
2013-9-10,64.2,55.1,48.8,54.0,49.7,45.7,93,82,66,30.24,30.16,18,7,18,0.00
2013-9-11,60.7,55.9,50.5,60.7,55.3,49.1,100,98,93,30.23,30.06,9,2,9,0.25
2013-9-12,62.4,57.2,52.5,61.8,56.9,52.5,100,99,92,30.08,29.86,20,5,20,0.15
2013-9-13,54.2,49.8,45.4,54.1,48.7,44.9,100,96,86,30.08,29.99,12,2,12,0.09
2013-9-14,61.3,50.8,43.6,50.6,47.2,43.3,100,88,65,30.07,29.90,12,3,12,0.00
2013-9-15,57.8,50.4,42.2,57.8,48.6,41.1,100,94,71,29.90,29.21,38,14,38,0.90
2013-9-16,53.9,47.1,42.2,50.5,45.0,41.2,98,92,79,29.36,29.28,24,9,24,0.26
2013-9-17,54.2,49.0,44.3,48.8,45.8,42.7,95,89,80,29.40,29.30,25,7,25,0.00
2013-9-18,55.7,48.8,43.2,50.0,46.4,42.0,100,92,75,29.73,29.40,22,6,22,0.02
2013-9-19,55.9,50.6,46.7,55.7,50.4,46.2,100,99,97,29.78,29.48,14,4,14,0.29
2013-9-20,59.5,53.3,46.4,54.4,50.6,46.2,100,91,74,30.02,29.79,20,7,20,0.01
2013-9-21,62.0,57.1,51.7,62.0,56.1,49.7,100,97,88,30.10,30.01,18,8,18,0.02
2013-9-22,68.8,61.2,57.5,62.3,59.6,57.5,100,95,77,30.28,30.10,18,6,18,0.00
2013-9-23,64.3,59.8,54.7,62.4,59.3,54.7,100,98,93,30.27,30.09,10,2,10,0.00
2013-9-24,59.9,58.6,56.9,59.9,58.6,56.9,100,100,100,30.09,29.94,7,2,7,0.05
2013-9-25,56.9,54.1,47.3,56.9,53.8,46.5,100,99,92,30.02,29.88,13,5,13,0.02
2013-9-26,57.5,50.8,43.3,53.1,49.2,43.3,100,94,80,30.09,30.02,8,3,8,0.06
2013-9-27,58.6,55.2,52.5,58.6,55.2,52.5,100,100,100,30.04,29.91,4,0,4,0.04
2013-9-28,68.3,57.2,47.3,62.2,55.4,47.3,100,94,79,29.91,29.82,10,2,10,0.00
2013-9-29,64.5,53.4,45.5,56.4,50.3,45.5,100,90,73,29.90,29.84,20,5,20,0.00
2013-9-30,60.7,52.8,44.6,54.5,50.0,44.6,100,91,79,29.86,29.77,22,7,22,0.01
2013-10-1,60.9,53.4,46.8,53.2,50.2,46.0,100,90,72,29.86,29.77,18,6,18,0.13
2013-10-2,58.9,55.5,52.0,58.6,55.4,52.0,100,100,98,29.80,29.71,17,4,17,0.38
2013-10-3,66.1,62.0,57.8,65.8,61.7,57.6,100,99,94,29.71,29.50,18,7,18,0.76
2013-10-4,62.6,59.1,55.3,61.0,58.8,55.3,100,99,91,29.81,29.50,13,4,13,0.06
2013-10-5,60.1,56.2,53.1,57.3,55.0,53.1,100,96,83,30.07,29.82,17,5,17,0.01
2013-10-6,62.3,59.7,57.0,62.3,59.4,56.6,100,99,89,30.08,30.03,20,8,20,0.14
2013-10-7,65.8,62.2,60.4,63.5,61.6,60.4,100,98,90,30.06,29.95,24,10,24,0.10
2013-10-8,60.4,55.9,51.9,60.4,55.5,50.8,100,99,93,30.16,29.95,21,8,21,0.06
2013-10-9,52.2,49.3,44.2,52.2,45.5,36.1,100,87,73,30.17,29.97,30,10,30,0.05
2013-10-10,53.2,45.8,37.6,42.5,38.8,34.6,89,77,63,30.44,30.17,18,5,18,0.00
2013-10-11,51.7,44.6,36.3,47.0,41.8,33.8,98,90,83,30.50,30.41,14,5,14,0.00
2013-10-12,58.4,50.7,46.2,50.8,47.8,44.5,98,90,73,30.46,30.25,21,8,21,0.00
2013-10-13,53.3,49.9,45.1,51.3,48.7,45.1,100,96,86,30.25,30.03,17,7,17,0.00
2013-10-14,54.7,50.9,48.0,54.2,50.7,48.0,100,99,92,30.03,29.91,12,5,12,0.02
2013-10-15,56.3,49.8,43.8,53.4,49.0,43.6,100,97,88,29.97,29.90,14,3,14,0.00
2013-10-16,51.9,45.7,38.0,51.7,45.7,38.0,100,100,96,29.96,29.58,12,3,12,0.26
2013-10-17,55.6,51.4,47.6,55.6,51.4,47.6,100,100,100,29.94,29.63,12,2,12,0.14
2013-10-18,54.2,51.1,48.5,54.2,51.1,48.5,100,100,100,29.96,29.63,12,4,12,0.35
2013-10-19,60.5,56.1,53.5,60.5,56.1,53.5,100,100,100,29.63,29.42,14,4,14,0.44
2013-10-20,58.4,55.0,51.9,58.4,55.0,51.9,100,100,100,29.44,29.36,21,4,21,0.30
2013-10-21,57.0,54.7,52.8,57.0,54.7,52.8,100,100,100,29.49,29.22,17,4,17,0.61
2013-10-22,60.7,58.6,57.0,60.7,58.5,57.0,100,100,96,29.22,29.04,22,7,22,0.62
2013-10-23,58.1,53.0,47.1,58.1,52.0,45.7,100,96,79,29.57,28.96,29,8,29,0.12
2013-10-24,56.9,50.0,46.1,52.9,48.7,44.3,100,96,79,29.86,29.57,13,3,13,0.02
2013-10-25,59.9,53.2,46.7,59.6,53.2,46.7,100,100,100,29.81,29.28,20,7,20,0.40
2013-10-26,56.5,52.8,48.8,56.5,52.5,48.8,100,99,90,29.41,29.12,25,8,25,0.25
2013-10-27,53.5,51.1,49.5,53.5,51.1,49.5,100,100,98,29.12,28.81,26,12,27,0.94
2013-10-28,52.0,49.8,47.1,52.0,49.8,47.1,100,100,98,29.34,28.86,20,6,20,0.16
2013-10-29,51.6,46.8,42.9,50.1,46.4,42.8,100,98,91,29.87,29.34,20,5,20,0.02
2013-10-30,55.6,48.7,42.3,55.4,48.5,42.3,100,99,94,29.90,29.56,27,8,27,0.25
2013-10-31,53.2,49.0,46.2,51.8,48.8,45.9,100,99,94,29.79,29.58,24,10,24,0.17
2013-11-1,51.3,47.8,42.8,49.5,46.7,42.8,100,96,88,29.59,29.53,22,7,22,0.00
2013-11-2,46.0,42.6,38.2,46.0,42.6,38.2,100,100,100,29.53,28.83,27,5,27,0.56
2013-11-3,49.5,44.4,37.9,46.3,43.1,37.8,100,95,83,29.29,28.99,32,8,32,0.02
2013-11-4,48.6,39.9,35.2,44.0,38.9,35.2,100,96,81,29.37,29.21,10,2,10,0.01
2013-11-5,45.7,39.0,32.8,45.7,39.0,32.8,100,100,99,29.30,29.16,20,2,20,0.10
2013-11-6,48.0,44.1,40.3,48.0,44.1,40.3,100,100,100,29.36,29.23,16,4,16,0.23
2013-11-7,49.6,45.6,40.9,49.1,45.4,40.9,100,99,95,29.45,29.35,28,10,28,0.27
2013-11-8,48.9,45.1,40.5,48.3,45.0,40.3,100,100,96,29.53,29.44,21,5,21,0.13
2013-11-9,44.8,39.4,34.3,44.6,39.4,34.3,100,100,100,29.65,29.49,12,2,12,0.10
2013-11-10,47.0,40.4,34.3,45.1,39.9,34.3,100,98,89,30.08,29.65,12,2,12,0.01
2013-11-11,56.0,51.2,45.1,56.0,51.0,45.1,100,99,93,30.02,29.75,25,9,25,0.20
2013-11-12,50.4,47.2,44.1,50.1,46.6,44.1,100,98,87,30.36,30.02,22,7,22,0.12
2013-11-13,50.4,48.1,44.9,50.4,47.8,44.9,100,99,94,30.36,29.81,27,10,27,0.25
2013-11-14,48.9,45.0,42.6,48.9,43.6,40.6,100,95,86,30.47,29.81,27,9,27,0.06
2013-11-15,52.2,49.9,44.1,52.2,49.9,44.1,100,100,99,30.46,30.34,20,6,20,0.02
2013-11-16,53.5,51.1,42.1,53.5,51.1,42.1,100,100,100,30.34,30.21,21,7,21,0.10
2013-11-17,46.2,42.0,36.9,46.2,42.0,36.8,100,100,100,30.35,29.91,6,1,6,0.05
2013-11-18,46.1,42.3,36.5,46.1,42.1,36.3,100,99,89,29.91,29.75,18,3,18,0.04
2013-11-19,46.1,37.9,31.9,46.1,37.5,31.8,100,98,89,30.02,29.60,24,5,24,0.15
2013-11-20,47.0,43.2,39.6,47.0,41.2,35.8,100,93,82,29.80,29.42,30,12,30,0.19
2013-11-21,41.5,36.3,29.5,38.0,34.0,29.5,100,92,84,30.15,29.79,14,2,16,0.00
2013-11-22,40.1,33.3,26.1,37.8,32.9,26.1,100,99,89,30.28,30.15,7,1,7,0.00
2013-11-23,46.2,41.0,36.3,46.2,41.0,36.3,100,100,100,30.42,30.26,7,2,7,0.00
2013-11-24,42.1,37.4,33.4,41.9,37.4,33.4,100,100,100,30.67,30.42,4,0,4,0.01
2013-11-25,43.2,38.6,32.4,43.2,38.6,32.4,100,100,100,30.71,30.66,5,1,5,0.00
2013-11-26,52.9,48.9,42.6,52.9,48.9,42.5,100,100,100,30.69,30.52,20,4,20,0.05
2013-11-27,54.2,52.3,49.6,54.2,52.3,49.6,100,100,100,30.52,30.48,13,5,13,0.01
2013-11-28,50.7,45.8,42.2,50.7,45.8,42.1,100,100,100,30.59,30.34,20,2,20,0.02
2013-11-29,50.8,45.9,43.1,50.8,45.3,41.9,100,98,92,30.34,30.11,27,11,27,0.16
2013-11-30,49.4,45.5,39.1,49.4,45.4,38.8,100,100,97,30.39,30.28,17,4,17,0.00
2013-12-1,51.0,48.4,46.4,51.0,48.4,46.4,100,100,100,30.56,30.37,12,3,12,0.01
2013-12-2,48.8,47.6,46.2,48.8,47.6,45.9,100,100,99,30.55,30.30,17,6,17,0.02
2013-12-3,51.1,48.6,41.6,51.1,48.6,41.3,100,100,99,30.30,30.09,20,9,20,0.12
2013-12-4,46.2,43.1,39.2,45.9,43.0,39.2,100,100,97,30.29,30.06,24,7,24,0.27
2013-12-5,50.4,42.5,35.3,50.4,41.6,31.4,100,97,78,30.14,29.46,52,17,52,0.87
2013-12-6,39.2,37.0,33.8,36.8,34.5,30.7,100,91,76,30.31,30.15,20,3,20,0.06
2013-12-7,50.1,45.0,36.0,50.1,45.0,36.0,100,100,100,30.19,29.93,20,5,20,0.17
2013-12-8,55.7,52.8,49.8,55.6,52.8,49.8,100,100,100,29.95,29.83,28,12,28,0.79
2013-12-9,55.6,52.8,50.2,55.6,52.8,50.2,100,100,100,30.15,29.92,20,9,20,0.10
2013-12-10,55.3,53.0,49.9,55.3,52.9,49.4,100,100,97,30.16,30.09,29,13,29,0.03
2013-12-11,55.3,51.3,45.8,55.3,51.2,45.8,100,100,97,30.19,29.96,28,10,28,0.00
2013-12-12,57.3,55.0,49.4,57.3,54.9,48.1,100,100,92,29.96,29.86,28,12,28,0.68
2013-12-13,56.6,52.6,45.4,56.6,52.6,45.4,100,100,100,29.86,29.66,44,1,44,0.21
2013-12-14,54.2,49.0,42.3,54.2,49.0,42.3,100,100,99,29.89,29.37,1,0,1,1.01
2013-12-15,52.5,47.1,43.2,52.5,47.1,43.2,100,100,98,29.81,29.48,0,0,0,0.34
2013-12-16,50.5,45.4,41.2,50.5,45.1,41.2,100,99,89,29.94,29.47,0,0,0,0.19
2013-12-17,47.9,44.3,41.2,47.2,44.0,41.2,100,99,96,30.05,29.65,0,0,0,0.00
2013-12-18,54.1,50.5,46.1,54.1,50.4,44.3,100,99,90,29.65,28.69,0,0,0,0.54
2013-12-19,46.1,42.1,39.2,45.3,41.9,39.2,100,99,96,29.45,28.76,0,0,0,0.22
2013-12-20,53.5,46.7,40.2,53.5,46.7,40.1,100,100,100,29.68,29.31,0,0,0,0.89
2013-12-21,49.9,47.2,42.8,49.9,47.0,42.8,100,99,96,29.45,29.22,0,0,0,0.28
2013-12-22,44.8,41.8,37.8,44.8,41.8,37.8,100,100,97,29.48,29.26,0,0,0,0.21
2013-12-23,52.3,45.2,39.3,52.3,45.2,39.3,100,100,99,29.48,28.22,27,7,27,0.19
2013-12-24,50.7,42.9,40.1,50.5,42.0,38.5,100,97,87,28.43,28.20,38,19,38,0.30
2013-12-25,46.4,44.6,42.9,46.1,44.3,41.6,100,99,88,29.02,28.43,26,12,28,0.26
2013-12-26,44.5,42.1,39.8,44.5,42.1,39.8,100,100,100,29.25,28.48,29,10,29,0.05
2013-12-27,48.5,46.3,39.9,48.5,46.3,39.8,100,100,99,28.75,28.10,36,17,36,0.98
2013-12-28,45.4,43.6,42.2,45.4,43.6,42.2,100,100,99,29.47,28.76,24,8,24,0.34
2013-12-29,49.5,43.9,41.5,49.5,43.9,41.5,100,100,100,29.75,29.39,18,5,26,0.62
2013-12-30,52.2,45.6,41.2,52.2,45.6,41.2,100,100,100,29.56,29.28,10,3,24,0.99
2013-12-31,47.4,44.5,42.5,47.4,44.5,42.5,100,100,100,29.53,29.16,15,7,25,0.14
2014-1-1,48.7,43.6,41.3,48.7,43.6,41.3,100,100,100,29.22,28.60,9,4,21,0.45
2014-1-2,47.0,45.4,43.1,47.0,45.4,43.1,100,100,100,29.08,28.70,13,4,25,0.21